sensor_id;sensor_type;location;lat;lon;timestamp;P1;durP1;ratioP1;P2;durP2;ratioP2
2756;SDS011;1386;50.862;6.494;2022-11-03T06:09:09;8.07;;;4.60;;
2756;SDS011;1386;50.862;6.494;2022-11-03T06:11:39;6.83;;;3.90;;
2756;SDS011;1386;50.862;6.494;2022-11-03T06:14:11;12.70;;;4.50;;
2756;SDS011;1386;50.862;6.494;2022-11-03T06:16:46;7.80;;;3.97;;
2756;SDS011;1386;50.862;6.494;2022-11-03T06:19:18;12.30;;;4.10;;
2756;SDS011;1386;50.862;6.494;2022-11-03T06:21:48;9.87;;;4.73;;
2756;SDS011;1386;50.862;6.494;2022-11-03T06:24:18;9.67;;;4.10;;
2756;SDS011;1386;50.862;6.494;2022-11-03T06:26:46;9.53;;;3.70;;
2756;SDS011;1386;50.862;6.494;2022-11-03T06:29:17;5.80;;;3.50;;
2756;SDS011;1386;50.862;6.494;2022-11-03T06:31:46;6.70;;;3.60;;
2756;SDS011;1386;50.862;6.494;2022-11-03T06:34:19;9.57;;;3.90;;
2756;SDS011;1386;50.862;6.494;2022-11-03T06:36:56;8.47;;;3.80;;
2756;SDS011;1386;50.862;6.494;2022-11-03T06:39:28;4.73;;;3.67;;
2756;SDS011;1386;50.862;6.494;2022-11-03T06:41:55;7.60;;;4.03;;
2756;SDS011;1386;50.862;6.494;2022-11-03T06:44:22;10.77;;;4.43;;
2756;SDS011;1386;50.862;6.494;2022-11-03T06:46:50;5.37;;;3.57;;
2756;SDS011;1386;50.862;6.494;2022-11-03T06:49:23;6.97;;;3.00;;
2756;SDS011;1386;50.862;6.494;2022-11-03T06:51:53;6.83;;;2.87;;
2756;SDS011;1386;50.862;6.494;2022-11-03T06:54:20;14.07;;;3.43;;
2756;SDS011;1386;50.862;6.494;2022-11-03T06:56:49;12.00;;;3.63;;
2756;SDS011;1386;50.862;6.494;2022-11-03T06:59:16;7.23;;;4.00;;
2756;SDS011;1386;50.862;6.494;2022-11-03T07:01:45;5.83;;;3.17;;
2756;SDS011;1386;50.862;6.494;2022-11-03T07:04:15;8.90;;;4.03;;
2756;SDS011;1386;50.862;6.494;2022-11-03T07:06:45;12.00;;;4.43;;
2756;SDS011;1386;50.862;6.494;2022-11-03T07:09:14;12.30;;;4.00;;
2756;SDS011;1386;50.862;6.494;2022-11-03T07:11:45;13.77;;;3.93;;
2756;SDS011;1386;50.862;6.494;2022-11-03T07:14:16;5.97;;;2.73;;
2756;SDS011;1386;50.862;6.494;2022-11-03T07:16:46;7.87;;;2.63;;
2756;SDS011;1386;50.862;6.494;2022-11-03T07:19:17;6.20;;;3.03;;
2756;SDS011;1386;50.862;6.494;2022-11-03T07:21:47;10.10;;;4.03;;
2756;SDS011;1386;50.862;6.494;2022-11-03T07:24:16;10.60;;;3.80;;
2756;SDS011;1386;50.862;6.494;2022-11-03T07:26:47;6.50;;;3.37;;
2756;SDS011;1386;50.862;6.494;2022-11-03T07:29:20;6.00;;;3.00;;
2756;SDS011;1386;50.862;6.494;2022-11-03T07:31:50;11.63;;;3.60;;
2756;SDS011;1386;50.862;6.494;2022-11-03T07:34:19;10.13;;;3.23;;
2756;SDS011;1386;50.862;6.494;2022-11-03T07:36:49;11.77;;;3.27;;
2756;SDS011;1386;50.862;6.494;2022-11-03T07:39:18;8.33;;;2.97;;
2756;SDS011;1386;50.862;6.494;2022-11-03T07:41:46;4.20;;;2.80;;
2756;SDS011;1386;50.862;6.494;2022-11-03T07:44:14;8.50;;;3.10;;
2756;SDS011;1386;50.862;6.494;2022-11-03T07:46:46;8.23;;;3.53;;
2756;SDS011;1386;50.862;6.494;2022-11-03T07:49:18;4.97;;;2.90;;
2756;SDS011;1386;50.862;6.494;2022-11-03T07:51:51;8.10;;;3.63;;
2756;SDS011;1386;50.862;6.494;2022-11-03T07:54:18;5.37;;;3.40;;
2756;SDS011;1386;50.862;6.494;2022-11-03T07:56:48;16.43;;;3.63;;
2756;SDS011;1386;50.862;6.494;2022-11-03T07:59:18;4.53;;;2.93;;
2756;SDS011;1386;50.862;6.494;2022-11-03T08:01:48;6.43;;;3.60;;
2756;SDS011;1386;50.862;6.494;2022-11-03T08:04:17;6.43;;;2.80;;
2756;SDS011;1386;50.862;6.494;2022-11-03T08:06:46;8.40;;;3.37;;
2756;SDS011;1386;50.862;6.494;2022-11-03T08:09:13;6.50;;;3.20;;
2756;SDS011;1386;50.862;6.494;2022-11-03T08:11:40;7.17;;;3.43;;
2756;SDS011;1386;50.862;6.494;2022-11-03T08:14:07;10.70;;;3.30;;
2756;SDS011;1386;50.862;6.494;2022-11-03T08:16:34;6.43;;;3.23;;
2756;SDS011;1386;50.862;6.494;2022-11-03T08:19:03;6.20;;;2.80;;
2756;SDS011;1386;50.862;6.494;2022-11-03T08:21:30;7.60;;;2.83;;
2756;SDS011;1386;50.862;6.494;2022-11-03T08:23:56;4.87;;;3.33;;
2756;SDS011;1386;50.862;6.494;2022-11-03T08:26:23;5.30;;;2.80;;
2756;SDS011;1386;50.862;6.494;2022-11-03T08:28:50;8.50;;;2.90;;
2756;SDS011;1386;50.862;6.494;2022-11-03T08:31:17;6.07;;;3.53;;
2756;SDS011;1386;50.862;6.494;2022-11-03T08:33:44;8.80;;;3.00;;
2756;SDS011;1386;50.862;6.494;2022-11-03T08:36:12;8.93;;;3.97;;
2756;SDS011;1386;50.862;6.494;2022-11-03T08:38:39;7.77;;;4.00;;
2756;SDS011;1386;50.862;6.494;2022-11-03T08:41:06;7.53;;;3.27;;
2756;SDS011;1386;50.862;6.494;2022-11-03T08:43:33;8.00;;;3.77;;
2756;SDS011;1386;50.862;6.494;2022-11-03T08:46:00;7.50;;;3.43;;
2756;SDS011;1386;50.862;6.494;2022-11-03T08:48:27;7.83;;;3.40;;
2756;SDS011;1386;50.862;6.494;2022-11-03T08:50:54;8.90;;;4.00;;
2756;SDS011;1386;50.862;6.494;2022-11-03T08:53:23;7.20;;;3.37;;
2756;SDS011;1386;50.862;6.494;2022-11-03T08:55:51;7.30;;;3.60;;
2756;SDS011;1386;50.862;6.494;2022-11-03T08:58:18;8.57;;;3.47;;
2756;SDS011;1386;50.862;6.494;2022-11-03T09:00:45;10.70;;;4.50;;
2756;SDS011;1386;50.862;6.494;2022-11-03T09:03:12;8.17;;;3.80;;
2756;SDS011;1386;50.862;6.494;2022-11-03T09:05:39;7.97;;;3.60;;
2756;SDS011;1386;50.862;6.494;2022-11-03T09:08:06;7.93;;;4.13;;
2756;SDS011;1386;50.862;6.494;2022-11-03T09:10:34;6.10;;;3.10;;
2756;SDS011;1386;50.862;6.494;2022-11-03T09:13:01;11.10;;;4.77;;
2756;SDS011;1386;50.862;6.494;2022-11-03T09:15:28;6.70;;;4.40;;
2756;SDS011;1386;50.862;6.494;2022-11-03T09:17:55;17.07;;;4.67;;
2756;SDS011;1386;50.862;6.494;2022-11-03T09:20:22;10.00;;;3.70;;
2756;SDS011;1386;50.862;6.494;2022-11-03T09:22:49;13.17;;;3.30;;
2756;SDS011;1386;50.862;6.494;2022-11-03T09:25:16;7.73;;;3.90;;
2756;SDS011;1386;50.862;6.494;2022-11-03T09:27:45;8.53;;;3.43;;
2756;SDS011;1386;50.862;6.494;2022-11-03T09:30:12;11.40;;;3.97;;
2756;SDS011;1386;50.862;6.494;2022-11-03T09:32:39;8.90;;;3.47;;
2756;SDS011;1386;50.862;6.494;2022-11-03T09:35:06;7.87;;;3.13;;
2756;SDS011;1386;50.862;6.494;2022-11-03T09:37:33;6.83;;;3.50;;
2756;SDS011;1386;50.862;6.494;2022-11-03T09:40:00;8.00;;;3.20;;
2756;SDS011;1386;50.862;6.494;2022-11-03T09:42:29;6.87;;;3.20;;
2756;SDS011;1386;50.862;6.494;2022-11-03T09:44:59;5.80;;;2.67;;
2756;SDS011;1386;50.862;6.494;2022-11-03T09:48:30;9.70;;;3.83;;
2756;SDS011;1386;50.862;6.494;2022-11-03T09:57:41;10.57;;;3.50;;
2756;SDS011;1386;50.862;6.494;2022-11-03T10:03:00;7.77;;;2.90;;
2756;SDS011;1386;50.862;6.494;2022-11-03T10:05:28;7.50;;;3.40;;
2756;SDS011;1386;50.862;6.494;2022-11-03T10:07:56;7.10;;;2.97;;
2756;SDS011;1386;50.862;6.494;2022-11-03T10:10:33;6.77;;;2.97;;
2756;SDS011;1386;50.862;6.494;2022-11-03T10:13:20;9.87;;;3.47;;
2756;SDS011;1386;50.862;6.494;2022-11-03T10:16:14;4.53;;;2.90;;
2756;SDS011;1386;50.862;6.494;2022-11-03T10:26:18;4.47;;;2.57;;
2756;SDS011;1386;50.862;6.494;2022-11-03T10:31:56;7.50;;;2.87;;
2756;SDS011;1386;50.862;6.494;2022-11-03T10:34:26;5.23;;;2.60;;
2756;SDS011;1386;50.862;6.494;2022-11-03T10:37:15;8.03;;;2.57;;
2756;SDS011;1386;50.862;6.494;2022-11-03T10:39:48;9.67;;;2.77;;
2756;SDS011;1386;50.862;6.494;2022-11-03T10:42:29;5.07;;;2.60;;
2756;SDS011;1386;50.862;6.494;2022-11-03T10:45:29;6.20;;;2.40;;
2756;SDS011;1386;50.862;6.494;2022-11-03T10:48:00;5.13;;;2.53;;
2756;SDS011;1386;50.862;6.494;2022-11-03T10:50:32;9.30;;;3.20;;
2756;SDS011;1386;50.862;6.494;2022-11-03T10:53:31;10.20;;;2.43;;
2756;SDS011;1386;50.862;6.494;2022-11-03T10:56:24;4.30;;;2.40;;
2756;SDS011;1386;50.862;6.494;2022-11-03T11:05:13;3.83;;;2.23;;
2756;SDS011;1386;50.862;6.494;2022-11-03T11:07:45;5.30;;;3.40;;
2756;SDS011;1386;50.862;6.494;2022-11-03T11:10:14;5.97;;;3.10;;
2756;SDS011;1386;50.862;6.494;2022-11-03T11:13:02;4.37;;;2.77;;
2756;SDS011;1386;50.862;6.494;2022-11-03T11:15:55;6.63;;;2.90;;
2756;SDS011;1386;50.862;6.494;2022-11-03T11:33:28;6.43;;;3.50;;
2756;SDS011;1386;50.862;6.494;2022-11-03T11:38:54;9.10;;;3.30;;
2756;SDS011;1386;50.862;6.494;2022-11-03T11:50:20;4.33;;;2.53;;
2756;SDS011;1386;50.862;6.494;2022-11-03T11:52:56;4.80;;;2.10;;
2756;SDS011;1386;50.862;6.494;2022-11-03T11:55:42;5.90;;;3.20;;
2756;SDS011;1386;50.862;6.494;2022-11-03T11:58:13;3.93;;;3.50;;
2756;SDS011;1386;50.862;6.494;2022-11-03T12:00:52;7.03;;;3.73;;
2756;SDS011;1386;50.862;6.494;2022-11-03T12:06:11;5.93;;;5.30;;
2756;SDS011;1386;50.862;6.494;2022-11-03T12:08:39;15.20;;;10.00;;
2756;SDS011;1386;50.862;6.494;2022-11-03T12:11:08;8.20;;;3.93;;
2756;SDS011;1386;50.862;6.494;2022-11-03T12:13:40;8.90;;;6.13;;
2756;SDS011;1386;50.862;6.494;2022-11-03T12:16:26;6.57;;;3.67;;
2756;SDS011;1386;50.862;6.494;2022-11-03T12:19:07;6.40;;;3.30;;
2756;SDS011;1386;50.862;6.494;2022-11-03T12:22:03;8.50;;;5.20;;
2756;SDS011;1386;50.862;6.494;2022-11-03T12:24:35;8.53;;;6.47;;
2756;SDS011;1386;50.862;6.494;2022-11-03T12:27:16;5.90;;;4.50;;
2756;SDS011;1386;50.862;6.494;2022-11-03T12:30:01;8.07;;;4.50;;
2756;SDS011;1386;50.862;6.494;2022-11-03T12:32:30;7.47;;;3.93;;
2756;SDS011;1386;50.862;6.494;2022-11-03T12:34:58;8.80;;;3.27;;
2756;SDS011;1386;50.862;6.494;2022-11-03T12:37:25;5.17;;;4.43;;
2756;SDS011;1386;50.862;6.494;2022-11-03T12:39:52;10.57;;;6.87;;
2756;SDS011;1386;50.862;6.494;2022-11-03T12:42:21;16.63;;;9.50;;
2756;SDS011;1386;50.862;6.494;2022-11-03T12:44:49;12.67;;;6.00;;
2756;SDS011;1386;50.862;6.494;2022-11-03T12:47:16;6.77;;;3.37;;
2756;SDS011;1386;50.862;6.494;2022-11-03T12:49:54;5.03;;;4.40;;
2756;SDS011;1386;50.862;6.494;2022-11-03T12:52:22;7.57;;;3.53;;
2756;SDS011;1386;50.862;6.494;2022-11-03T12:54:49;4.00;;;3.23;;
2756;SDS011;1386;50.862;6.494;2022-11-03T12:57:16;4.10;;;2.70;;
2756;SDS011;1386;50.862;6.494;2022-11-03T12:59:42;8.30;;;5.10;;
2756;SDS011;1386;50.862;6.494;2022-11-03T13:02:09;8.27;;;3.17;;
2756;SDS011;1386;50.862;6.494;2022-11-03T13:04:36;5.50;;;3.13;;
2756;SDS011;1386;50.862;6.494;2022-11-03T13:07:05;6.80;;;4.23;;
2756;SDS011;1386;50.862;6.494;2022-11-03T13:09:33;5.70;;;3.00;;
2756;SDS011;1386;50.862;6.494;2022-11-03T13:12:00;5.50;;;2.77;;
2756;SDS011;1386;50.862;6.494;2022-11-03T13:14:45;6.70;;;2.63;;
2756;SDS011;1386;50.862;6.494;2022-11-03T13:17:11;4.70;;;2.80;;
2756;SDS011;1386;50.862;6.494;2022-11-03T13:19:38;3.53;;;2.30;;
2756;SDS011;1386;50.862;6.494;2022-11-03T13:22:05;4.23;;;2.90;;
2756;SDS011;1386;50.862;6.494;2022-11-03T13:24:33;7.60;;;2.53;;
2756;SDS011;1386;50.862;6.494;2022-11-03T13:27:00;6.77;;;2.90;;
2756;SDS011;1386;50.862;6.494;2022-11-03T13:29:27;4.17;;;2.10;;
2756;SDS011;1386;50.862;6.494;2022-11-03T13:31:54;4.80;;;2.70;;
2756;SDS011;1386;50.862;6.494;2022-11-03T13:34:21;6.93;;;2.53;;
2756;SDS011;1386;50.862;6.494;2022-11-03T13:36:48;4.27;;;2.60;;
2756;SDS011;1386;50.862;6.494;2022-11-03T13:39:14;3.90;;;2.50;;
2756;SDS011;1386;50.862;6.494;2022-11-03T13:41:43;3.63;;;2.27;;
2756;SDS011;1386;50.862;6.494;2022-11-03T13:44:09;5.10;;;2.17;;
2756;SDS011;1386;50.862;6.494;2022-11-03T13:46:36;6.10;;;3.00;;
2756;SDS011;1386;50.862;6.494;2022-11-03T13:49:03;4.07;;;2.80;;
2756;SDS011;1386;50.862;6.494;2022-11-03T13:51:45;2.53;;;2.20;;
2756;SDS011;1386;50.862;6.494;2022-11-03T13:54:15;11.83;;;2.80;;
2756;SDS011;1386;50.862;6.494;2022-11-03T13:56:44;6.13;;;2.30;;
2756;SDS011;1386;50.862;6.494;2022-11-03T13:59:11;5.63;;;2.40;;
2756;SDS011;1386;50.862;6.494;2022-11-03T14:01:38;3.20;;;1.93;;
2756;SDS011;1386;50.862;6.494;2022-11-03T14:04:05;7.17;;;2.70;;
2756;SDS011;1386;50.862;6.494;2022-11-03T14:06:32;3.57;;;2.23;;
2756;SDS011;1386;50.862;6.494;2022-11-03T14:08:59;3.73;;;2.47;;
2756;SDS011;1386;50.862;6.494;2022-11-03T14:11:26;2.93;;;2.30;;
2756;SDS011;1386;50.862;6.494;2022-11-03T14:14:12;2.83;;;1.97;;
2756;SDS011;1386;50.862;6.494;2022-11-03T14:16:40;4.57;;;1.97;;
2756;SDS011;1386;50.862;6.494;2022-11-03T16:04:49;4.30;;;3.07;;
2756;SDS011;1386;50.862;6.494;2022-11-03T16:07:50;3.60;;;2.47;;
2756;SDS011;1386;50.862;6.494;2022-11-03T16:10:45;4.83;;;2.70;;
2756;SDS011;1386;50.862;6.494;2022-11-03T17:54:59;6.03;;;4.27;;
2756;SDS011;1386;50.862;6.494;2022-11-03T17:57:29;5.43;;;4.03;;
2756;SDS011;1386;50.862;6.494;2022-11-03T17:59:57;4.90;;;3.97;;
2756;SDS011;1386;50.862;6.494;2022-11-03T18:02:33;7.10;;;5.30;;
2756;SDS011;1386;50.862;6.494;2022-11-03T18:05:12;7.43;;;5.10;;
2756;SDS011;1386;50.862;6.494;2022-11-03T18:08:00;9.77;;;6.87;;
2756;SDS011;1386;50.862;6.494;2022-11-03T18:10:33;16.87;;;12.07;;
2756;SDS011;1386;50.862;6.494;2022-11-03T18:13:04;10.00;;;6.73;;
2756;SDS011;1386;50.862;6.494;2022-11-03T18:15:44;4.87;;;3.73;;
2756;SDS011;1386;50.862;6.494;2022-11-03T18:21:35;6.70;;;3.37;;
2756;SDS011;1386;50.862;6.494;2022-11-03T18:24:04;4.43;;;3.33;;
2756;SDS011;1386;50.862;6.494;2022-11-03T18:26:35;5.33;;;3.93;;
2756;SDS011;1386;50.862;6.494;2022-11-03T18:29:02;4.37;;;3.83;;
2756;SDS011;1386;50.862;6.494;2022-11-03T18:31:30;6.60;;;3.60;;
2756;SDS011;1386;50.862;6.494;2022-11-03T18:34:00;4.50;;;4.10;;
2756;SDS011;1386;50.862;6.494;2022-11-03T18:36:30;5.93;;;4.40;;
2756;SDS011;1386;50.862;6.494;2022-11-03T18:38:57;6.23;;;5.30;;
2756;SDS011;1386;50.862;6.494;2022-11-03T18:41:25;5.30;;;4.80;;
2756;SDS011;1386;50.862;6.494;2022-11-03T18:44:08;5.87;;;4.50;;
2756;SDS011;1386;50.862;6.494;2022-11-03T18:46:42;5.10;;;4.00;;
2756;SDS011;1386;50.862;6.494;2022-11-03T18:49:09;6.03;;;4.00;;
2756;SDS011;1386;50.862;6.494;2022-11-03T18:51:36;5.60;;;5.00;;
2756;SDS011;1386;50.862;6.494;2022-11-03T18:54:07;6.73;;;5.50;;
2756;SDS011;1386;50.862;6.494;2022-11-03T18:56:37;5.43;;;4.20;;
2756;SDS011;1386;50.862;6.494;2022-11-03T18:59:15;7.07;;;4.80;;
2756;SDS011;1386;50.862;6.494;2022-11-03T19:01:51;6.00;;;4.40;;
2756;SDS011;1386;50.862;6.494;2022-11-03T19:04:19;5.13;;;4.43;;
2756;SDS011;1386;50.862;6.494;2022-11-03T19:06:46;7.80;;;5.43;;
2756;SDS011;1386;50.862;6.494;2022-11-03T19:09:16;11.87;;;7.50;;
2756;SDS011;1386;50.862;6.494;2022-11-03T19:14:53;6.50;;;5.00;;
2756;SDS011;1386;50.862;6.494;2022-11-03T19:17:19;7.57;;;6.30;;
2756;SDS011;1386;50.862;6.494;2022-11-03T19:19:47;7.80;;;6.57;;
2756;SDS011;1386;50.862;6.494;2022-11-03T19:22:14;12.07;;;9.50;;
2756;SDS011;1386;50.862;6.494;2022-11-03T19:24:43;5.37;;;4.43;;
2756;SDS011;1386;50.862;6.494;2022-11-03T19:27:12;7.60;;;6.17;;
2756;SDS011;1386;50.862;6.494;2022-11-03T19:29:42;8.60;;;5.87;;
2756;SDS011;1386;50.862;6.494;2022-11-03T19:32:13;6.20;;;5.10;;
2756;SDS011;1386;50.862;6.494;2022-11-03T19:34:53;3.70;;;3.40;;
2756;SDS011;1386;50.862;6.494;2022-11-03T19:37:22;8.40;;;3.87;;
2756;SDS011;1386;50.862;6.494;2022-11-03T19:40:03;5.17;;;3.10;;
2756;SDS011;1386;50.862;6.494;2022-11-03T19:42:33;3.60;;;3.30;;
2756;SDS011;1386;50.862;6.494;2022-11-03T19:45:01;2.93;;;2.63;;
2756;SDS011;1386;50.862;6.494;2022-11-03T19:47:32;4.07;;;3.07;;
2756;SDS011;1386;50.862;6.494;2022-11-03T19:50:06;4.27;;;3.10;;
2756;SDS011;1386;50.862;6.494;2022-11-03T19:52:40;2.70;;;2.40;;
2756;SDS011;1386;50.862;6.494;2022-11-03T19:55:21;3.17;;;2.83;;
2756;SDS011;1386;50.862;6.494;2022-11-03T19:57:54;3.63;;;3.00;;
2756;SDS011;1386;50.862;6.494;2022-11-03T20:00:32;2.80;;;2.33;;
2756;SDS011;1386;50.862;6.494;2022-11-03T20:03:01;2.90;;;2.70;;
2756;SDS011;1386;50.862;6.494;2022-11-03T20:05:29;3.83;;;2.30;;
2756;SDS011;1386;50.862;6.494;2022-11-03T20:08:10;3.80;;;2.37;;
2756;SDS011;1386;50.862;6.494;2022-11-03T20:10:42;5.97;;;2.70;;
2756;SDS011;1386;50.862;6.494;2022-11-03T20:13:14;2.10;;;1.90;;
2756;SDS011;1386;50.862;6.494;2022-11-03T20:15:43;1.87;;;1.67;;
2756;SDS011;1386;50.862;6.494;2022-11-03T20:18:12;2.33;;;2.13;;
